sensor_id;sensor_type;location;lat;lon;timestamp;pressure;altitude;pressure_sealevel;temperature;humidity
8573;BME280;4324;42.012;24.872;2023-05-09T00:00:29;99241.22;;;14.61;60.20
8573;BME280;4324;42.012;24.872;2023-05-09T00:02:56;99205.25;;;14.35;59.19
8573;BME280;4324;42.012;24.872;2023-05-09T00:05:23;99277.16;;;14.80;59.90
8573;BME280;4324;42.012;24.872;2023-05-09T00:07:50;99276.75;;;14.83;60.42
8573;BME280;4324;42.012;24.872;2023-05-09T00:10:17;99220.38;;;14.49;60.38
8573;BME280;4324;42.012;24.872;2023-05-09T00:12:46;99211.19;;;14.37;60.77
8573;BME280;4324;42.012;24.872;2023-05-09T00:15:14;99195.94;;;14.31;60.15
8573;BME280;4324;42.012;24.872;2023-05-09T00:17:41;99199.81;;;14.28;59.68
8573;BME280;4324;42.012;24.872;2023-05-09T00:20:09;99202.28;;;14.30;60.05
8573;BME280;4324;42.012;24.872;2023-05-09T00:22:37;99187.78;;;14.18;60.08
8573;BME280;4324;42.012;24.872;2023-05-09T00:25:06;99244.66;;;14.55;60.14
8573;BME280;4324;42.012;24.872;2023-05-09T00:27:33;99215.91;;;14.35;60.35
8573;BME280;4324;42.012;24.872;2023-05-09T00:30:02;99262.72;;;14.74;60.87
8573;BME280;4324;42.012;24.872;2023-05-09T00:32:30;99245.94;;;14.59;59.99
8573;BME280;4324;42.012;24.872;2023-05-09T00:34:58;99261.81;;;14.67;60.03
8573;BME280;4324;42.012;24.872;2023-05-09T00:37:25;99223.41;;;14.46;60.58
8573;BME280;4324;42.012;24.872;2023-05-09T00:39:52;99229.84;;;14.52;60.90
8573;BME280;4324;42.012;24.872;2023-05-09T00:42:19;99253.09;;;14.73;61.05
8573;BME280;4324;42.012;24.872;2023-05-09T00:44:46;99272.78;;;14.93;61.13
8573;BME280;4324;42.012;24.872;2023-05-09T00:47:14;99274.84;;;14.91;60.40
8573;BME280;4324;42.012;24.872;2023-05-09T00:49:41;99226.63;;;14.57;59.73
8573;BME280;4324;42.012;24.872;2023-05-09T00:52:08;99238.56;;;14.61;60.39
8573;BME280;4324;42.012;24.872;2023-05-09T00:54:36;99235.28;;;14.59;60.58
8573;BME280;4324;42.012;24.872;2023-05-09T00:57:03;99251.00;;;14.68;60.23
8573;BME280;4324;42.012;24.872;2023-05-09T00:59:30;99242.53;;;14.65;60.58
8573;BME280;4324;42.012;24.872;2023-05-09T01:01:57;99267.84;;;14.90;60.31
8573;BME280;4324;42.012;24.872;2023-05-09T01:04:25;99220.56;;;14.63;59.85
8573;BME280;4324;42.012;24.872;2023-05-09T01:06:59;99248.75;;;14.72;59.97
8573;BME280;4324;42.012;24.872;2023-05-09T01:09:43;99190.25;;;14.34;60.41
8573;BME280;4324;42.012;24.872;2023-05-09T01:12:18;99255.75;;;14.73;59.96
8573;BME280;4324;42.012;24.872;2023-05-09T01:14:55;99244.53;;;14.63;60.10
8573;BME280;4324;42.012;24.872;2023-05-09T01:17:32;99255.22;;;14.63;60.18
8573;BME280;4324;42.012;24.872;2023-05-09T01:20:11;99289.56;;;14.87;59.62
8573;BME280;4324;42.012;24.872;2023-05-09T01:22:44;99286.59;;;14.82;60.07
8573;BME280;4324;42.012;24.872;2023-05-09T01:25:32;99238.03;;;14.50;60.73
8573;BME280;4324;42.012;24.872;2023-05-09T01:28:12;99272.19;;;14.76;60.91
8573;BME280;4324;42.012;24.872;2023-05-09T01:30:44;99241.63;;;14.58;60.34
8573;BME280;4324;42.012;24.872;2023-05-09T01:33:16;99257.88;;;14.63;60.43
8573;BME280;4324;42.012;24.872;2023-05-09T01:35:45;99259.97;;;14.67;59.50
8573;BME280;4324;42.012;24.872;2023-05-09T01:38:17;99259.00;;;14.54;59.78
8573;BME280;4324;42.012;24.872;2023-05-09T01:40:48;99250.53;;;14.50;60.28
8573;BME280;4324;42.012;24.872;2023-05-09T01:43:18;99257.31;;;14.52;60.37
8573;BME280;4324;42.012;24.872;2023-05-09T01:45:47;99295.63;;;14.81;60.72
8573;BME280;4324;42.012;24.872;2023-05-09T01:48:14;99252.28;;;14.58;60.49
8573;BME280;4324;42.012;24.872;2023-05-09T01:50:43;99247.13;;;14.56;59.61
8573;BME280;4324;42.012;24.872;2023-05-09T01:53:11;99299.38;;;14.87;60.41
8573;BME280;4324;42.012;24.872;2023-05-09T01:55:39;99250.25;;;14.60;61.11
8573;BME280;4324;42.012;24.872;2023-05-09T01:58:07;99262.28;;;14.70;61.39
8573;BME280;4324;42.012;24.872;2023-05-09T02:00:35;99294.88;;;14.87;61.48
8573;BME280;4324;42.012;24.872;2023-05-09T02:03:04;99286.97;;;14.79;61.52
8573;BME280;4324;42.012;24.872;2023-05-09T02:05:32;99265.78;;;14.56;60.56
8573;BME280;4324;42.012;24.872;2023-05-09T02:08:00;99294.16;;;14.64;61.08
8573;BME280;4324;42.012;24.872;2023-05-09T02:10:27;99274.19;;;14.45;61.33
8573;BME280;4324;42.012;24.872;2023-05-09T02:12:55;99304.56;;;14.59;61.02
8573;BME280;4324;42.012;24.872;2023-05-09T02:15:22;99313.38;;;14.59;60.70
8573;BME280;4324;42.012;24.872;2023-05-09T02:17:49;99299.38;;;14.42;60.25
8573;BME280;4324;42.012;24.872;2023-05-09T02:20:17;99256.19;;;14.02;59.57
8573;BME280;4324;42.012;24.872;2023-05-09T02:22:45;99296.63;;;14.21;59.50
8573;BME280;4324;42.012;24.872;2023-05-09T02:25:12;99258.28;;;13.92;60.05
8573;BME280;4324;42.012;24.872;2023-05-09T02:27:42;99267.56;;;13.96;60.17
8573;BME280;4324;42.012;24.872;2023-05-09T02:30:14;99244.00;;;13.70;60.07
8573;BME280;4324;42.012;24.872;2023-05-09T02:32:44;99276.09;;;13.92;59.17
8573;BME280;4324;42.012;24.872;2023-05-09T02:35:13;99266.91;;;13.79;59.76
8573;BME280;4324;42.012;24.872;2023-05-09T02:37:43;99321.50;;;14.13;60.00
8573;BME280;4324;42.012;24.872;2023-05-09T02:40:11;99282.59;;;13.89;60.21
8573;BME280;4324;42.012;24.872;2023-05-09T02:42:39;99314.69;;;14.11;60.83
8573;BME280;4324;42.012;24.872;2023-05-09T02:45:07;99266.47;;;13.91;60.45
8573;BME280;4324;42.012;24.872;2023-05-09T02:47:35;99292.47;;;14.03;59.91
8573;BME280;4324;42.012;24.872;2023-05-09T02:50:03;99262.09;;;13.75;60.32
8573;BME280;4324;42.012;24.872;2023-05-09T02:52:30;99292.53;;;13.95;60.84
8573;BME280;4324;42.012;24.872;2023-05-09T02:54:58;99292.19;;;13.98;61.02
8573;BME280;4324;42.012;24.872;2023-05-09T02:57:26;99293.28;;;14.04;61.05
8573;BME280;4324;42.012;24.872;2023-05-09T02:59:53;99291.44;;;14.04;60.62
8573;BME280;4324;42.012;24.872;2023-05-09T03:02:20;99314.34;;;14.14;60.66
8573;BME280;4324;42.012;24.872;2023-05-09T03:04:48;99284.44;;;13.89;60.32
8573;BME280;4324;42.012;24.872;2023-05-09T03:07:15;99340.22;;;14.20;60.61
8573;BME280;4324;42.012;24.872;2023-05-09T03:09:42;99300.88;;;13.92;60.89
8573;BME280;4324;42.012;24.872;2023-05-09T03:12:10;99278.19;;;13.82;60.85
8573;BME280;4324;42.012;24.872;2023-05-09T03:14:37;99278.72;;;13.77;60.29
8573;BME280;4324;42.012;24.872;2023-05-09T03:17:04;99287.19;;;13.80;60.59
8573;BME280;4324;42.012;24.872;2023-05-09T03:19:31;99359.06;;;14.18;60.73
8573;BME280;4324;42.012;24.872;2023-05-09T03:21:58;99319.31;;;13.94;60.75
8573;BME280;4324;42.012;24.872;2023-05-09T03:24:26;99350.06;;;14.19;61.33
8573;BME280;4324;42.012;24.872;2023-05-09T03:26:53;99304.19;;;13.94;61.26
8573;BME280;4324;42.012;24.872;2023-05-09T03:29:22;99338.09;;;14.15;60.76
8573;BME280;4324;42.012;24.872;2023-05-09T03:31:49;99338.41;;;14.20;61.35
8573;BME280;4324;42.012;24.872;2023-05-09T03:34:16;99358.53;;;14.38;61.24
8573;BME280;4324;42.012;24.872;2023-05-09T03:36:43;99330.59;;;14.19;61.70
8573;BME280;4324;42.012;24.872;2023-05-09T03:39:10;99330.88;;;14.24;61.79
8573;BME280;4324;42.012;24.872;2023-05-09T03:41:37;99321.56;;;14.20;61.22
8573;BME280;4324;42.012;24.872;2023-05-09T03:44:04;99325.25;;;14.19;61.79
8573;BME280;4324;42.012;24.872;2023-05-09T03:46:33;99332.53;;;14.25;63.28
8573;BME280;4324;42.012;24.872;2023-05-09T03:49:00;99338.13;;;14.30;64.06
8573;BME280;4324;42.012;24.872;2023-05-09T03:51:29;99378.16;;;14.60;64.53
8573;BME280;4324;42.012;24.872;2023-05-09T03:53:56;99332.44;;;14.33;64.68
8573;BME280;4324;42.012;24.872;2023-05-09T03:56:23;99377.22;;;14.52;64.53
8573;BME280;4324;42.012;24.872;2023-05-09T03:58:51;99337.31;;;14.29;65.42
8573;BME280;4324;42.012;24.872;2023-05-09T04:01:18;99379.81;;;14.61;66.30
8573;BME280;4324;42.012;24.872;2023-05-09T04:03:46;99383.50;;;14.60;66.46
8573;BME280;4324;42.012;24.872;2023-05-09T04:06:13;99365.94;;;14.50;66.90
8573;BME280;4324;42.012;24.872;2023-05-09T04:08:41;99344.22;;;14.39;66.62
8573;BME280;4324;42.012;24.872;2023-05-09T04:11:08;99322.59;;;14.19;66.74
8573;BME280;4324;42.012;24.872;2023-05-09T04:13:35;99339.16;;;14.29;66.87
8573;BME280;4324;42.012;24.872;2023-05-09T04:16:02;99344.47;;;14.29;66.46
8573;BME280;4324;42.012;24.872;2023-05-09T04:18:29;99367.09;;;14.48;66.74
8573;BME280;4324;42.012;24.872;2023-05-09T04:20:58;99310.75;;;14.21;66.45
8573;BME280;4324;42.012;24.872;2023-05-09T04:23:26;99382.41;;;14.69;66.22
8573;BME280;4324;42.012;24.872;2023-05-09T04:25:54;99267.13;;;14.08;66.66
8573;BME280;4324;42.012;24.872;2023-05-09T04:28:21;99318.78;;;14.36;67.51
8573;BME280;4324;42.012;24.872;2023-05-09T04:30:48;99345.81;;;14.63;67.96
8573;BME280;4324;42.012;24.872;2023-05-09T04:33:15;99318.31;;;14.47;68.46
8573;BME280;4324;42.012;24.872;2023-05-09T04:35:42;99373.97;;;14.80;68.05
8573;BME280;4324;42.012;24.872;2023-05-09T04:38:11;99340.84;;;14.60;68.61
8573;BME280;4324;42.012;24.872;2023-05-09T04:40:37;99358.59;;;14.67;69.05
8573;BME280;4324;42.012;24.872;2023-05-09T04:43:04;99307.66;;;14.33;69.85
8573;BME280;4324;42.012;24.872;2023-05-09T04:45:31;99396.56;;;14.84;69.87
8573;BME280;4324;42.012;24.872;2023-05-09T04:47:58;99318.22;;;14.41;69.28
8573;BME280;4324;42.012;24.872;2023-05-09T04:50:25;99347.75;;;14.54;68.82
8573;BME280;4324;42.012;24.872;2023-05-09T04:52:52;99322.53;;;14.42;69.11
8573;BME280;4324;42.012;24.872;2023-05-09T04:55:21;99286.69;;;14.15;69.52
8573;BME280;4324;42.012;24.872;2023-05-09T04:57:48;99344.53;;;14.59;69.82
8573;BME280;4324;42.012;24.872;2023-05-09T05:00:15;99352.78;;;14.64;70.11
8573;BME280;4324;42.012;24.872;2023-05-09T05:02:43;99325.97;;;14.50;69.71
8573;BME280;4324;42.012;24.872;2023-05-09T05:05:10;99380.56;;;14.84;69.88
8573;BME280;4324;42.012;24.872;2023-05-09T05:07:37;99400.16;;;14.91;70.11
8573;BME280;4324;42.012;24.872;2023-05-09T05:10:05;99376.63;;;14.80;70.54
8573;BME280;4324;42.012;24.872;2023-05-09T05:12:33;99392.16;;;14.91;71.04
8573;BME280;4324;42.012;24.872;2023-05-09T05:15:00;99395.53;;;15.00;70.77
8573;BME280;4324;42.012;24.872;2023-05-09T05:17:27;99388.00;;;14.89;69.90
8573;BME280;4324;42.012;24.872;2023-05-09T05:19:54;99376.25;;;14.83;70.37
8573;BME280;4324;42.012;24.872;2023-05-09T05:22:21;99363.09;;;14.67;70.03
8573;BME280;4324;42.012;24.872;2023-05-09T05:24:48;99395.19;;;14.73;70.54
8573;BME280;4324;42.012;24.872;2023-05-09T05:27:15;99395.91;;;14.67;70.75
8573;BME280;4324;42.012;24.872;2023-05-09T05:29:44;99400.78;;;14.64;69.41
8573;BME280;4324;42.012;24.872;2023-05-09T05:32:11;99351.66;;;14.28;69.19
8573;BME280;4324;42.012;24.872;2023-05-09T05:34:37;99382.69;;;14.36;69.07
8573;BME280;4324;42.012;24.872;2023-05-09T05:37:05;99360.91;;;14.18;68.92
8573;BME280;4324;42.012;24.872;2023-05-09T05:39:32;99395.19;;;14.36;68.83
8573;BME280;4324;42.012;24.872;2023-05-09T05:41:59;99417.63;;;14.41;68.33
8573;BME280;4324;42.012;24.872;2023-05-09T05:44:26;99426.97;;;14.37;67.63
8573;BME280;4324;42.012;24.872;2023-05-09T05:46:54;99412.78;;;14.22;68.51
8573;BME280;4324;42.012;24.872;2023-05-09T05:49:21;99437.97;;;14.34;68.96
8573;BME280;4324;42.012;24.872;2023-05-09T05:51:49;99382.97;;;14.03;69.06
8573;BME280;4324;42.012;24.872;2023-05-09T05:54:16;99412.44;;;14.25;69.20
8573;BME280;4324;42.012;24.872;2023-05-09T05:56:43;99418.03;;;14.30;68.65
8573;BME280;4324;42.012;24.872;2023-05-09T05:59:10;99407.59;;;14.28;69.28
8573;BME280;4324;42.012;24.872;2023-05-09T06:01:37;99429.63;;;14.37;68.82
8573;BME280;4324;42.012;24.872;2023-05-09T06:04:05;99401.19;;;14.15;69.03
8573;BME280;4324;42.012;24.872;2023-05-09T06:06:33;99406.38;;;14.31;69.10
8573;BME280;4324;42.012;24.872;2023-05-09T06:08:59;99355.81;;;14.08;69.15
8573;BME280;4324;42.012;24.872;2023-05-09T06:11:26;99378.44;;;14.27;69.71
8573;BME280;4324;42.012;24.872;2023-05-09T06:13:53;99348.94;;;14.14;69.81
8573;BME280;4324;42.012;24.872;2023-05-09T06:16:20;99402.56;;;14.48;69.92
8573;BME280;4324;42.012;24.872;2023-05-09T06:18:47;99396.59;;;14.46;69.98
8573;BME280;4324;42.012;24.872;2023-05-09T06:21:16;99423.00;;;14.56;69.55
8573;BME280;4324;42.012;24.872;2023-05-09T06:23:43;99396.66;;;14.38;68.25
8573;BME280;4324;42.012;24.872;2023-05-09T06:26:10;99405.66;;;14.37;69.33
8573;BME280;4324;42.012;24.872;2023-05-09T06:28:39;99422.22;;;14.47;69.17
8573;BME280;4324;42.012;24.872;2023-05-09T06:31:06;99401.00;;;14.39;68.64
8573;BME280;4324;42.012;24.872;2023-05-09T06:33:33;99403.81;;;14.38;68.43
8573;BME280;4324;42.012;24.872;2023-05-09T06:36:00;99365.47;;;14.09;68.21
8573;BME280;4324;42.012;24.872;2023-05-09T06:38:29;99424.59;;;14.42;68.65
8573;BME280;4324;42.012;24.872;2023-05-09T06:40:55;99396.09;;;14.28;68.41
8573;BME280;4324;42.012;24.872;2023-05-09T06:43:23;99422.78;;;14.43;68.39
8573;BME280;4324;42.012;24.872;2023-05-09T06:45:50;99383.50;;;14.22;67.82
8573;BME280;4324;42.012;24.872;2023-05-09T06:48:17;99411.94;;;14.44;68.50
8573;BME280;4324;42.012;24.872;2023-05-09T06:50:44;99414.91;;;14.49;69.48
8573;BME280;4324;42.012;24.872;2023-05-09T06:53:11;99389.31;;;14.40;69.41
8573;BME280;4324;42.012;24.872;2023-05-09T06:55:40;99406.75;;;14.51;69.83
8573;BME280;4324;42.012;24.872;2023-05-09T06:58:10;99415.47;;;14.60;69.30
8573;BME280;4324;42.012;24.872;2023-05-09T07:00:38;99382.63;;;14.44;69.43
8573;BME280;4324;42.012;24.872;2023-05-09T07:03:05;99433.69;;;14.71;68.80
8573;BME280;4324;42.012;24.872;2023-05-09T07:05:32;99410.88;;;14.54;68.52
8573;BME280;4324;42.012;24.872;2023-05-09T07:07:59;99430.09;;;14.64;68.64
8573;BME280;4324;42.012;24.872;2023-05-09T07:10:26;99392.63;;;14.42;68.72
8573;BME280;4324;42.012;24.872;2023-05-09T07:12:55;99419.16;;;14.59;69.10
8573;BME280;4324;42.012;24.872;2023-05-09T07:15:22;99429.63;;;14.75;69.71
8573;BME280;4324;42.012;24.872;2023-05-09T07:17:49;99432.25;;;14.83;70.15
8573;BME280;4324;42.012;24.872;2023-05-09T07:20:19;99434.34;;;14.88;70.24
8573;BME280;4324;42.012;24.872;2023-05-09T07:22:46;99401.22;;;14.67;70.73
8573;BME280;4324;42.012;24.872;2023-05-09T07:25:13;99427.63;;;14.77;70.73
8573;BME280;4324;42.012;24.872;2023-05-09T07:27:40;99397.09;;;14.50;70.93
8573;BME280;4324;42.012;24.872;2023-05-09T07:30:09;99414.09;;;14.64;71.20
8573;BME280;4324;42.012;24.872;2023-05-09T07:32:36;99445.09;;;14.80;70.46
8573;BME280;4324;42.012;24.872;2023-05-09T07:35:04;99432.97;;;14.77;70.56
8573;BME280;4324;42.012;24.872;2023-05-09T07:37:30;99387.53;;;14.56;70.85
8573;BME280;4324;42.012;24.872;2023-05-09T07:39:58;99438.66;;;14.89;71.07
8573;BME280;4324;42.012;24.872;2023-05-09T07:42:25;99412.19;;;14.72;71.42
8573;BME280;4324;42.012;24.872;2023-05-09T07:44:52;99391.69;;;14.58;70.96
8573;BME280;4324;42.012;24.872;2023-05-09T07:47:20;99413.47;;;14.76;71.19
8573;BME280;4324;42.012;24.872;2023-05-09T07:49:47;99397.75;;;14.67;70.01
8573;BME280;4324;42.012;24.872;2023-05-09T07:52:14;99366.28;;;14.47;70.39
8573;BME280;4324;42.012;24.872;2023-05-09T07:54:42;99412.09;;;14.81;70.25
8573;BME280;4324;42.012;24.872;2023-05-09T07:57:09;99432.41;;;14.96;70.74
8573;BME280;4324;42.012;24.872;2023-05-09T07:59:35;99446.94;;;14.94;71.21
8573;BME280;4324;42.012;24.872;2023-05-09T08:02:02;99452.09;;;14.95;71.76
8573;BME280;4324;42.012;24.872;2023-05-09T08:04:31;99431.38;;;14.83;71.15
8573;BME280;4324;42.012;24.872;2023-05-09T08:06:57;99449.78;;;14.92;70.57
8573;BME280;4324;42.012;24.872;2023-05-09T08:09:28;99430.31;;;14.77;71.33
8573;BME280;4324;42.012;24.872;2023-05-09T08:11:55;99444.56;;;14.84;71.21
8573;BME280;4324;42.012;24.872;2023-05-09T08:14:23;99441.31;;;14.74;71.13
8573;BME280;4324;42.012;24.872;2023-05-09T08:16:50;99449.06;;;14.84;71.61
8573;BME280;4324;42.012;24.872;2023-05-09T08:19:16;99437.28;;;14.78;71.63
8573;BME280;4324;42.012;24.872;2023-05-09T08:21:46;99450.34;;;14.88;70.81
8573;BME280;4324;42.012;24.872;2023-05-09T08:24:13;99427.63;;;14.77;71.03
8573;BME280;4324;42.012;24.872;2023-05-09T08:26:41;99425.88;;;14.69;70.99
8573;BME280;4324;42.012;24.872;2023-05-09T08:29:08;99446.00;;;14.87;71.10
8573;BME280;4324;42.012;24.872;2023-05-09T08:31:36;99401.13;;;14.61;71.17
8573;BME280;4324;42.012;24.872;2023-05-09T08:34:02;99439.94;;;14.78;71.36
8573;BME280;4324;42.012;24.872;2023-05-09T08:36:29;99441.59;;;14.79;70.75
8573;BME280;4324;42.012;24.872;2023-05-09T08:38:58;99454.56;;;14.82;71.56
8573;BME280;4324;42.012;24.872;2023-05-09T08:41:25;99451.06;;;14.82;71.18
8573;BME280;4324;42.012;24.872;2023-05-09T08:43:52;99425.06;;;14.69;71.29
8573;BME280;4324;42.012;24.872;2023-05-09T08:46:25;99395.47;;;14.41;71.21
8573;BME280;4324;42.012;24.872;2023-05-09T08:48:54;99434.22;;;14.66;71.36
8573;BME280;4324;42.012;24.872;2023-05-09T08:51:22;99432.41;;;14.67;71.22
8573;BME280;4324;42.012;24.872;2023-05-09T08:53:49;99401.88;;;14.55;70.13
8573;BME280;4324;42.012;24.872;2023-05-09T08:56:18;99447.31;;;14.76;70.59
8573;BME280;4324;42.012;24.872;2023-05-09T08:58:46;99445.28;;;14.78;70.93
8573;BME280;4324;42.012;24.872;2023-05-09T09:01:13;99424.22;;;14.68;71.23
8573;BME280;4324;42.012;24.872;2023-05-09T09:03:41;99371.03;;;14.37;70.65
8573;BME280;4324;42.012;24.872;2023-05-09T09:06:12;99437.13;;;14.80;69.89
8573;BME280;4324;42.012;24.872;2023-05-09T09:08:39;99423.50;;;14.74;70.85
8573;BME280;4324;42.012;24.872;2023-05-09T09:11:09;99405.84;;;14.73;71.37
8573;BME280;4324;42.012;24.872;2023-05-09T09:13:39;99431.13;;;14.92;71.71
8573;BME280;4324;42.012;24.872;2023-05-09T09:16:08;99400.41;;;14.82;71.18
8573;BME280;4324;42.012;24.872;2023-05-09T09:18:36;99448.22;;;15.13;70.79
8573;BME280;4324;42.012;24.872;2023-05-09T09:21:06;99398.94;;;14.79;70.68
8573;BME280;4324;42.012;24.872;2023-05-09T09:23:38;99388.72;;;14.83;70.97
8573;BME280;4324;42.012;24.872;2023-05-09T09:26:05;99410.16;;;14.89;70.89
8573;BME280;4324;42.012;24.872;2023-05-09T09:28:33;99444.94;;;15.11;70.22
8573;BME280;4324;42.012;24.872;2023-05-09T09:31:18;99444.72;;;14.97;69.77
8573;BME280;4324;42.012;24.872;2023-05-09T09:33:45;99439.69;;;14.88;69.37
8573;BME280;4324;42.012;24.872;2023-05-09T09:36:12;99409.78;;;14.63;69.89
8573;BME280;4324;42.012;24.872;2023-05-09T09:38:40;99401.56;;;14.49;70.09
8573;BME280;4324;42.012;24.872;2023-05-09T09:41:11;99448.13;;;14.76;70.39
8573;BME280;4324;42.012;24.872;2023-05-09T09:43:44;99450.59;;;14.78;71.04
8573;BME280;4324;42.012;24.872;2023-05-09T09:46:13;99411.88;;;14.52;70.74
8573;BME280;4324;42.012;24.872;2023-05-09T09:48:45;99428.53;;;14.69;70.35
8573;BME280;4324;42.012;24.872;2023-05-09T09:51:15;99456.16;;;14.91;70.22
8573;BME280;4324;42.012;24.872;2023-05-09T09:53:43;99424.31;;;14.75;69.83
8573;BME280;4324;42.012;24.872;2023-05-09T09:56:11;99446.31;;;14.92;68.69
8573;BME280;4324;42.012;24.872;2023-05-09T09:58:38;99432.50;;;14.88;68.41
8573;BME280;4324;42.012;24.872;2023-05-09T10:01:06;99453.13;;;14.94;67.47
8573;BME280;4324;42.012;24.872;2023-05-09T10:03:39;99410.72;;;14.70;67.00
8573;BME280;4324;42.012;24.872;2023-05-09T10:06:09;99369.28;;;14.44;66.66
8573;BME280;4324;42.012;24.872;2023-05-09T10:08:37;99434.34;;;14.88;66.00
8573;BME280;4324;42.012;24.872;2023-05-09T10:11:04;99432.25;;;14.83;65.20
8573;BME280;4324;42.012;24.872;2023-05-09T10:13:33;99443.19;;;14.88;65.20
8573;BME280;4324;42.012;24.872;2023-05-09T10:16:02;99420.00;;;14.74;64.39
8573;BME280;4324;42.012;24.872;2023-05-09T10:18:30;99442.16;;;14.89;64.53
8573;BME280;4324;42.012;24.872;2023-05-09T10:20:58;99428.56;;;14.84;64.78
8573;BME280;4324;42.012;24.872;2023-05-09T10:23:31;99438.47;;;14.90;64.43
8573;BME280;4324;42.012;24.872;2023-05-09T10:26:04;99431.50;;;14.89;64.18
8573;BME280;4324;42.012;24.872;2023-05-09T10:28:38;99456.31;;;15.05;63.84
8573;BME280;4324;42.012;24.872;2023-05-09T10:31:11;99443.81;;;14.90;63.18
8573;BME280;4324;42.012;24.872;2023-05-09T10:33:45;99411.91;;;14.67;63.90
8573;BME280;4324;42.012;24.872;2023-05-09T10:36:16;99387.34;;;14.57;63.94
8573;BME280;4324;42.012;24.872;2023-05-09T10:38:43;99462.69;;;15.04;64.44
8573;BME280;4324;42.012;24.872;2023-05-09T10:41:10;99426.47;;;14.94;64.81
8573;BME280;4324;42.012;24.872;2023-05-09T10:43:38;99419.44;;;14.93;64.87
8573;BME280;4324;42.012;24.872;2023-05-09T10:46:06;99417.34;;;15.04;65.71
8573;BME280;4324;42.012;24.872;2023-05-09T10:48:33;99410.88;;;15.13;66.09
8573;BME280;4324;42.012;24.872;2023-05-09T10:51:01;99453.94;;;15.39;67.35
8573;BME280;4324;42.012;24.872;2023-05-09T10:53:41;99440.59;;;15.39;68.09
8573;BME280;4324;42.012;24.872;2023-05-09T10:56:21;99437.53;;;15.42;67.76
8573;BME280;4324;42.012;24.872;2023-05-09T10:58:48;99411.50;;;15.30;67.57
8573;BME280;4324;42.012;24.872;2023-05-09T11:01:27;99437.53;;;15.42;67.61
8573;BME280;4324;42.012;24.872;2023-05-09T11:03:56;99438.84;;;15.46;67.99
8573;BME280;4324;42.012;24.872;2023-05-09T11:06:40;99418.94;;;15.34;68.75
8573;BME280;4324;42.012;24.872;2023-05-09T11:09:30;99448.75;;;15.67;69.30
8573;BME280;4324;42.012;24.872;2023-05-09T11:12:10;99401.84;;;15.43;69.27
8573;BME280;4324;42.012;24.872;2023-05-09T11:14:39;99452.03;;;15.84;68.47
8573;BME280;4324;42.012;24.872;2023-05-09T11:17:08;99428.50;;;15.73;68.80
8573;BME280;4324;42.012;24.872;2023-05-09T11:19:38;99406.03;;;15.53;69.05
8573;BME280;4324;42.012;24.872;2023-05-09T11:22:23;99399.16;;;15.43;69.71
8573;BME280;4324;42.012;24.872;2023-05-09T11:25:02;99440.25;;;15.64;69.00
8573;BME280;4324;42.012;24.872;2023-05-09T11:27:38;99441.63;;;15.60;67.27
8573;BME280;4324;42.012;24.872;2023-05-09T11:30:08;99432.19;;;15.42;67.44
8573;BME280;4324;42.012;24.872;2023-05-09T11:32:41;99439.28;;;15.50;68.50
8573;BME280;4324;42.012;24.872;2023-05-09T11:35:10;99422.81;;;15.46;69.33
8573;BME280;4324;42.012;24.872;2023-05-09T11:37:44;99444.88;;;15.70;69.92
8573;BME280;4324;42.012;24.872;2023-05-09T11:40:14;99384.59;;;15.46;70.31
8573;BME280;4324;42.012;24.872;2023-05-09T11:42:42;99402.25;;;15.77;69.81
8573;BME280;4324;42.012;24.872;2023-05-09T11:45:11;99422.16;;;15.95;70.20
8573;BME280;4324;42.012;24.872;2023-05-09T11:47:38;99426.59;;;16.10;70.84
8573;BME280;4324;42.012;24.872;2023-05-09T11:50:07;99398.34;;;16.01;70.44
8573;BME280;4324;42.012;24.872;2023-05-09T11:52:34;99412.00;;;16.12;70.41
8573;BME280;4324;42.012;24.872;2023-05-09T11:55:01;99414.13;;;16.17;69.77
8573;BME280;4324;42.012;24.872;2023-05-09T11:57:30;99377.50;;;15.89;68.81
8573;BME280;4324;42.012;24.872;2023-05-09T11:59:58;99430.09;;;16.10;68.70
8573;BME280;4324;42.012;24.872;2023-05-09T12:02:26;99440.34;;;16.07;69.60
8573;BME280;4324;42.012;24.872;2023-05-09T12:04:53;99435.81;;;16.07;69.53
8573;BME280;4324;42.012;24.872;2023-05-09T12:07:20;99440.84;;;16.17;68.68
8573;BME280;4324;42.012;24.872;2023-05-09T12:09:48;99428.50;;;16.16;68.27
8573;BME280;4324;42.012;24.872;2023-05-09T12:12:15;99429.13;;;16.18;67.40
8573;BME280;4324;42.012;24.872;2023-05-09T12:14:47;99413.25;;;16.10;67.22
8573;BME280;4324;42.012;24.872;2023-05-09T12:17:14;99432.31;;;16.28;67.26
8573;BME280;4324;42.012;24.872;2023-05-09T12:19:41;99432.78;;;16.38;67.60
8573;BME280;4324;42.012;24.872;2023-05-09T12:22:09;99434.31;;;16.48;67.43
8573;BME280;4324;42.012;24.872;2023-05-09T12:24:36;99409.88;;;16.51;67.21
8573;BME280;4324;42.012;24.872;2023-05-09T12:27:05;99415.38;;;16.70;66.38
8573;BME280;4324;42.012;24.872;2023-05-09T12:29:32;99391.00;;;16.80;65.65
8573;BME280;4324;42.012;24.872;2023-05-09T12:32:01;99363.66;;;16.85;65.54
8573;BME280;4324;42.012;24.872;2023-05-09T12:34:28;99414.06;;;17.29;65.09
8573;BME280;4324;42.012;24.872;2023-05-09T12:36:55;99379.03;;;17.24;65.16
8573;BME280;4324;42.012;24.872;2023-05-09T12:39:24;99413.78;;;17.59;65.44
8573;BME280;4324;42.012;24.872;2023-05-09T12:41:51;99389.03;;;17.57;66.12
8573;BME280;4324;42.012;24.872;2023-05-09T12:44:20;99411.75;;;17.74;66.32
8573;BME280;4324;42.012;24.872;2023-05-09T12:46:55;99407.06;;;17.76;66.25
8573;BME280;4324;42.012;24.872;2023-05-09T12:49:25;99403.28;;;17.71;65.87
8573;BME280;4324;42.012;24.872;2023-05-09T12:51:53;99412.13;;;17.64;66.32
8573;BME280;4324;42.012;24.872;2023-05-09T12:54:21;99403.47;;;17.62;66.68
8573;BME280;4324;42.012;24.872;2023-05-09T12:56:49;99399.53;;;17.52;66.31
8573;BME280;4324;42.012;24.872;2023-05-09T12:59:21;99397.69;;;17.52;66.50
8573;BME280;4324;42.012;24.872;2023-05-09T13:01:53;99392.31;;;17.46;66.45
8573;BME280;4324;42.012;24.872;2023-05-09T13:04:21;99378.69;;;17.40;66.89
8573;BME280;4324;42.012;24.872;2023-05-09T13:06:51;99398.28;;;17.48;67.33
8573;BME280;4324;42.012;24.872;2023-05-09T13:09:20;99395.66;;;17.54;68.06
8573;BME280;4324;42.012;24.872;2023-05-09T13:11:48;99380.84;;;17.65;68.27
8573;BME280;4324;42.012;24.872;2023-05-09T13:14:15;99379.19;;;17.71;68.24
8573;BME280;4324;42.012;24.872;2023-05-09T13:16:43;99358.16;;;17.67;67.69